NEODyS-2

Near Earth Objects - Dynamic Site
NEODyS ∴ Observatories ∴ Site 691 ∴ Obs & residuals
Contact »
691  ▹ 
OBSERVATIONS AND RESIDUALS

691-Steward Observatory, Kitt Peak-Spacewatch

Detections | Residuals | Detections & Residuals

[1-200] [201-400] [401-600] [601-800] [801-1000] [1001-1200] [1201-1400] [1401-1600] [1601-1800] [1801-2000] [2001-2200] [2201-2400] [2401-2600] [2601-2800] [2801-3000] [3001-3200] [3201-3400] [3401-3600] [3601-3800] [3801-4000] [4001-4200] [4201-4400] [4401-4600] [4601-4800] [4801-5000] [5001-5200] [5201-5400] [5401-5600] [5601-5800] [5801-6000] [6001-6200] [6201-6400] [6401-6600] [6601-6800] [6801-7000] [7001-7200] [7201-7400] [7401-7600] [7601-7800] [7801-8000] [8001-8200] [8201-8400] [8401-8600] [8601-8800] [8801-9000] [9001-9200] [9201-9400] [9401-9600] [9601-9800] [9801-10000] [10001-10200] [10201-10400] [10401-10600] [10601-10800] [10801-11000] [11001-11200] [11201-11400] [11401-11600] [11601-11800] [11801-12000] [12001-12200] [12201-12400] [12401-12600] [12601-12800] [12801-13000] [13001-13200] [13201-13400] [13401-13600] [13601-13800] [13801-14000] [14001-14200] [14201-14400] [14401-14600] [14601-14800] [14801-15000] [15001-15200] [15201-15400] [15401-15600] [15601-15800] [15801-16000] [16001-16200] [16201-16400] [16401-16600] [16601-16800] [16801-17000] [17001-17200] [17201-17400] [17401-17600] [17601-17800] [17801-18000] [18001-18200] [18201-18400] [18401-18600] [18601-18800] [18801-19000] [19001-19200] [19201-19400] [19401-19600] [19601-19800] [19801-20000] [20001-20200] [20201-20400] [20401-20600] [20601-20800] [20801-21000] [21001-21200] [21201-21400] [21401-21600] [21601-21800] [21801-22000] [22001-22200] [22201-22400] [22401-22600] [22601-22800] [22801-23000] [23001-23200] [23201-23400] [23401-23600] [23601-23800] [23801-24000] [24001-24200] [24201-24400] [24401-24600] [24601-24800] [24801-25000] [25001-25200] [25201-25400] [25401-25600] [25601-25800] [25801-26000] [26001-26200] [26201-26400] [26401-26600] [26601-26800] [26801-27000] [27001-27200] [27201-27400] [27401-27600] [27601-27800] [27801-28000] [28001-28200] [28201-28400] [28401-28600] [28601-28800] [28801-29000] [29001-29200] [29201-29400] [29401-29600] [29601-29800] [29801-30000] [30001-30200] [30201-30400] [30401-30600] [30601-30800] [30801-31000] [31001-31200] [31201-31400] [31401-31600] [31601-31800] [31801-32000] [32001-32200] [32201-32400] [32401-32600] [32601-32800] [32801-33000] [33001-33200] [33201-33400] [33401-33600] [33601-33800] [33801-34000] [34001-34200] [34201-34400] [34401-34600] [34601-34800] [34801-35000] [35001-35200] [35201-35400] [35401-35600] [35601-35800] [35801-36000] [36001-36200] [36201-36400] [36401-36600] [36601-36800] [36801-37000] [37001-37200] [37201-37400] [37401-37600] [37601-37800] [37801-38000] [38001-38200] [38201-38400] [38401-38600] [38601-38800] [38801-39000] [39001-39200] [39201-39400] [39401-39600] [39601-39800] [39801-40000] [40001-40200] [40201-40400] [40401-40600] [40601-40800] [40801-41000] [41001-41200] [41201-41400] [41401-41600] [41601-41800] [41801-42000] [42001-42200] [42201-42400] [42401-42600] [42601-42800] [42801-43000] [43001-43200] [43201-43400] [43401-43600] [43601-43800] [43801-44000] [44001-44200] [44201-44400] [44401-44600] [44601-44800] [44801-45000] [45001-45200] [45201-45400] [45401-45600] [45601-45800] [45801-46000] [46001-46200] [46201-46400] [46401-46600] [46601-46800] [46801-47000] [47001-47200] [47201-47400] [47401-47600] [47601-47800] [47801-48000] [48001-48200] [48201-48400] [48401-48600] [48601-48800] [48801-49000] [49001-49200] [49201-49400] [49401-49600] [49601-49800] [49801-50000] [50001-50200] [50201-50388]

Designation T Tech N Date Right Ascension Declination Apparent Magnitude Star Catalog Site code χ Used A Used M
yr-mo-day precision hr:min:sec precision rms F bias residual deg min sec precision rms F bias residual mag/col rms residual
2019MF1 O C H 2019-07-06.41362 1.000E-05 23:24:54.940 1.500E-01 0.500 F -0.097 0.203 +02° 20' 44.80" 1.000E-01 0.500 F 0.372 0.178 18.5 R 0.70 0.23 o 691 0.55 Yes Yes
2019MF1 O C H 2019-07-06.42211 1.000E-05 23:24:55.780 1.500E-01 0.500 F -0.097 -0.109 +02° 22' 08.90" 1.000E-01 0.500 F 0.372 -0.181 18.4 R 0.70 0.13 o 691 0.43 Yes Yes
2016NH15 O C H 2019-07-08.22210 1.000E-05 15:56:36.890 1.500E-01 0.500 F -0.080 -0.523 -19° 52' 17.10" 1.000E-01 0.500 F 0.060 0.685 19.8 R 0.70 -0.45 o 691 1.73 Yes Yes
2016NH15 O C H 2019-07-08.23062 1.000E-05 15:56:37.190 1.500E-01 0.500 F -0.080 -0.072 -19° 52' 11.80" 1.000E-01 0.500 F 0.060 -0.498 20.7 R 0.70 0.45 o 691 1.01 Yes Yes
2013CK89 O C H 2019-07-08.39108 1.000E-05 22:42:12.220 1.500E-01 0.500 F -0.079 0.062 +14° 15' 14.90" 1.000E-01 0.500 F 0.409 -0.016 21.2 R 0.70 0.35 o 691 0.13 Yes Yes
2013CK89 O C H 2019-07-08.39931 1.000E-05 22:42:12.610 1.500E-01 0.500 F -0.079 0.050 +14° 15' 17.40" 1.000E-01 0.500 F 0.409 -0.199 21.0 R 0.70 0.16 o 691 0.41 Yes Yes
2013CK89 O C H 2019-07-08.40750 1.000E-05 22:42:12.910 1.500E-01 0.500 F -0.079 -1.236 +14° 15' 20.90" 1.000E-01 0.500 F 0.409 0.636 o 691 2.79 Yes No
2002TD60 O C 2019-07-09.16409 1.000E-05 14:58:05.790 1.500E-01 0.500 F 0.358 -0.089 -29° 50' 54.80" 1.000E-01 0.500 F 0.276 0.145 19.6 V 0.70 0.24 o 691 0.34 Yes Yes
2002TD60 O C 2019-07-09.17114 1.000E-05 14:58:05.890 1.500E-01 0.500 F 0.358 0.008 -29° 50' 58.40" 1.000E-01 0.500 F 0.276 0.406 19.3 V 0.70 -0.06 o 691 0.81 Yes Yes
2002TD60 O C 2019-07-09.17813 1.000E-05 14:58:05.970 1.500E-01 0.500 F 0.358 -0.156 -29° 51' 02.40" 1.000E-01 0.500 F 0.276 0.215 19.2 V 0.70 -0.16 o 691 0.53 Yes Yes
2016NW22 O C H 2019-07-09.20399 1.000E-05 16:20:05.720 1.500E-01 0.500 F 0.022 0.536 -05° 01' 26.30" 1.000E-01 0.500 F 0.230 -0.695 21.2 R 0.70 0.33 o 691 1.76 Yes Yes
2016NW22 O C H 2019-07-09.21234 1.000E-05 16:20:05.750 1.500E-01 0.500 F 0.022 0.058 -05° 01' 25.30" 1.000E-01 0.500 F 0.230 -0.112 21.6 R 0.70 0.73 o 691 0.25 Yes Yes
2016AU130 O C H 2019-07-09.33394 1.000E-05 20:28:37.150 1.500E-01 0.500 F -0.029 0.057 +00° 50' 27.40" 1.000E-01 0.500 F 0.122 0.143 17.1 R 0.70 0.20 o 691 0.31 Yes Yes
2019NP3 O C H 2019-07-09.33780 1.000E-05 21:26:45.650 1.500E-01 0.500 F -0.188 -0.495 -30° 17' 59.30" 1.000E-01 0.500 F 0.503 0.470 19.8 R 0.70 0.21 o 691 1.38 Yes Yes
2016AU130 O C H 2019-07-09.33953 1.000E-05 20:28:37.140 1.500E-01 0.500 F -0.029 -0.201 +00° 49' 48.90" 1.000E-01 0.500 F 0.122 0.181 17.1 R 0.70 0.20 o 691 0.55 Yes Yes
2019NP3 O C H 2019-07-09.34335 1.000E-05 21:26:44.810 1.500E-01 0.500 F -0.188 -0.200 -30° 17' 46.20" 1.000E-01 0.500 F 0.503 0.631 19.8 R 0.70 0.21 o 691 1.34 Yes Yes
2016AU130 O C H 2019-07-09.34508 1.000E-05 20:28:37.160 1.500E-01 0.500 F -0.029 -0.001 +00° 49' 10.70" 1.000E-01 0.500 F 0.122 0.253 17.2 R 0.70 0.30 o 691 0.52 Yes Yes
2019NP3 O C H 2019-07-09.34889 1.000E-05 21:26:43.950 1.500E-01 0.500 F -0.188 -0.175 -30° 17' 33.20" 1.000E-01 0.500 F 0.503 0.705 20.2 R 0.70 0.61 o 691 1.46 Yes Yes
2016OF O C H 2019-07-09.40543 1.000E-05 00:29:29.800 1.500E-01 0.500 F -0.145 -0.228 +04° 33' 50.20" 1.000E-01 0.500 F 0.214 0.631 18.8 R 0.70 0.57 o 691 1.42 Yes Yes
2016OF O C H 2019-07-09.41111 1.000E-05 00:29:22.890 1.500E-01 0.500 F -0.145 -0.060 +04° 35' 58.60" 1.000E-01 0.500 F 0.214 0.247 18.3 R 0.70 0.07 o 691 0.54 Yes Yes
2016OF O C H 2019-07-09.41679 1.000E-05 00:29:15.950 1.500E-01 0.500 F -0.145 -0.180 +04° 38' 07.10" 1.000E-01 0.500 F 0.214 0.045 18.3 R 0.70 0.07 o 691 0.39 Yes Yes
2019LL5 O C 2019-07-09.44820 1.000E-05 02:47:06.050 1.500E-01 0.500 F -0.244 0.489 +13° 25' 25.40" 1.000E-01 0.500 F 0.207 -0.369 20.2 V 0.70 -0.12 o 691 1.23 Yes Yes
2019LL5 O C 2019-07-09.45529 1.000E-05 02:47:07.240 1.500E-01 0.500 F -0.244 0.331 +13° 25' 17.20" 1.000E-01 0.500 F 0.207 -0.214 20.7 V 0.70 0.38 o 691 0.79 Yes Yes
2019LL5 O C 2019-07-09.46238 1.000E-05 02:47:08.400 1.500E-01 0.500 F -0.244 -0.248 +13° 25' 08.80" 1.000E-01 0.500 F 0.207 -0.257 20.4 V 0.70 0.08 o 691 0.72 Yes Yes
2013GV68 O C K 2019-07-10.17371 1.000E-05 17:10:56.730 1.500E-01 0.500 F -0.029 0.039 -10° 49' 11.10" 1.000E-01 0.500 F 0.251 0.075 20.6 R 0.70 0.11 o 691 0.17 Yes Yes
2013GV68 O C K 2019-07-10.18768 1.000E-05 17:10:54.020 1.500E-01 0.500 F -0.029 -0.184 -10° 49' 09.60" 1.000E-01 0.500 F 0.251 -0.175 o 691 0.52 Yes No
2013GV68 O C K 2019-07-10.20164 1.000E-05 17:10:51.330 1.500E-01 0.500 F -0.029 -0.125 -10° 49' 07.80" 1.000E-01 0.500 F 0.251 -0.135 o 691 0.37 Yes No
2017XD62 O C K 2019-07-10.21263 1.000E-05 16:58:25.580 1.500E-01 0.500 F 0.054 0.078 +16° 47' 33.70" 1.000E-01 0.500 F 0.213 0.099 19.0 R 0.70 0.06 o 691 0.25 Yes Yes
2014LX14 O C K 2019-07-10.21675 1.000E-05 17:37:05.260 1.500E-01 0.500 F 0.028 -0.667 +09° 31' 15.40" 1.000E-01 0.500 F 0.116 0.363 o 691 1.56 Yes No
2017XD62 O C K 2019-07-10.23436 1.000E-05 16:58:23.640 1.500E-01 0.500 F 0.054 0.056 +16° 48' 53.50" 1.000E-01 0.500 F 0.213 -0.126 19.0 R 0.70 0.06 o 691 0.27 Yes Yes
2014LX14 O C K 2019-07-10.23875 1.000E-05 17:37:04.090 1.500E-01 0.500 F 0.028 -0.106 +09° 31' 45.80" 1.000E-01 0.500 F 0.116 0.192 21.2 R 0.70 0.40 o 691 0.45 Yes Yes
2017XD62 O C K 2019-07-10.25648 1.000E-05 16:58:21.680 1.500E-01 0.500 F 0.054 0.178 +16° 50' 15.10" 1.000E-01 0.500 F 0.213 0.189 o 691 0.52 Yes No
2014LX14 O C K 2019-07-10.26090 1.000E-05 17:37:02.870 1.500E-01 0.500 F 0.028 -0.167 +09° 32' 16.20" 1.000E-01 0.500 F 0.116 -0.081 21.2 R 0.70 0.40 o 691 0.38 Yes Yes
2019NZ1 O C K 2019-07-10.29070 1.000E-05 19:29:44.410 1.500E-01 0.500 F 0.076 -0.329 -28° 21' 11.70" 1.000E-01 0.500 F 0.268 -0.011 o 691 0.67 Yes No
2019NZ1 O C K 2019-07-10.31084 1.000E-05 19:29:44.250 1.500E-01 0.500 F 0.076 -0.239 -28° 20' 50.10" 1.000E-01 0.500 F 0.268 -0.125 21.4 R 0.70 0.69 o 691 0.55 Yes Yes
2019NZ1 O C K 2019-07-10.33097 1.000E-05 19:29:44.100 1.500E-01 0.500 F 0.076 0.055 -28° 20' 27.20" 1.000E-01 0.500 F 0.268 0.618 20.6 R 0.70 -0.11 o 691 1.26 Yes Yes
2019NG2 O C K 2019-07-10.33990 1.000E-05 20:14:41.380 1.500E-01 0.500 F -0.051 0.311 -24° 48' 46.50" 1.000E-01 0.500 F 0.484 0.295 20.6 R 0.70 0.86 o 691 0.97 Yes Yes
1998KK17 O C 2019-07-10.34968 1.000E-05 20:49:38.650 1.500E-01 0.500 F -0.125 -0.001 -10° 19' 23.40" 1.000E-01 0.500 F 0.437 -0.098 19.6 V 0.70 0.31 o 691 0.20 Yes Yes
2019NL4 O C K 2019-07-10.34968 1.000E-05 20:49:37.520 1.500E-01 0.500 F -0.125 0.028 -10° 30' 33.30" 1.000E-01 0.500 F 0.437 0.160 o 691 0.34 Yes No
2019NG2 O C K 2019-07-10.35772 1.000E-05 20:14:30.400 1.500E-01 0.500 F -0.051 -0.005 -24° 50' 41.40" 1.000E-01 0.500 F 0.484 -0.198 o 691 0.44 Yes No
2019NL4 O C K 2019-07-10.36744 1.000E-05 20:49:29.860 1.500E-01 0.500 F -0.125 0.108 -10° 29' 25.80" 1.000E-01 0.500 F 0.437 0.086 21.2 R 0.70 0.28 o 691 0.29 Yes Yes
1998KK17 O C 2019-07-10.37085 1.000E-05 20:49:36.870 1.500E-01 0.500 F -0.125 0.014 -10° 19' 33.30" 1.000E-01 0.500 F 0.437 -0.028 19.6 V 0.70 0.32 o 691 0.06 Yes Yes
2019NG2 O C K 2019-07-10.37535 1.000E-05 20:14:19.530 1.500E-01 0.500 F -0.051 -0.019 -24° 52' 34.30" 1.000E-01 0.500 F 0.484 -0.090 20.0 R 0.70 0.27 o 691 0.21 Yes Yes
1998KK17 O C 2019-07-10.39189 1.000E-05 20:49:35.110 1.500E-01 0.500 F -0.125 0.182 -10° 19' 43.40" 1.000E-01 0.500 F 0.437 -0.233 19.6 V 0.70 0.32 o 691 0.59 Yes Yes
2014QO296 O C K 2019-07-29.29513 1.000E-05 15:49:14.550 1.500E-01 0.500 F -0.179 -0.418 +12° 46' 33.10" 1.000E-01 0.500 F 0.329 -0.075 o 691 0.88 Yes No
2014QO296 O C K 2019-07-29.30236 1.000E-05 15:49:16.750 1.500E-01 0.500 F -0.179 0.009 +12° 46' 16.90" 1.000E-01 0.500 F 0.329 -0.549 o 691 1.11 Yes No
2014QO296 O C K 2019-07-29.30960 1.000E-05 15:49:18.920 1.500E-01 0.500 F -0.179 -0.077 +12° 46' 01.50" 1.000E-01 0.500 F 0.329 -0.198 o 691 0.43 Yes No
2019OS1 O C K 2019-07-29.32222 1.000E-05 17:00:12.460 1.500E-01 0.500 F 0.026 0.337 +14° 00' 45.60" 1.000E-01 0.500 F 0.160 -0.374 o 691 1.06 Yes No
2019OS1 O C K 2019-07-29.32688 1.000E-05 17:00:11.710 1.500E-01 0.500 F 0.026 -0.734 +14° 00' 50.10" 1.000E-01 0.500 F 0.160 -0.192 o 691 1.61 Yes No
2019OS1 O C K 2019-07-29.33154 1.000E-05 17:00:11.090 1.500E-01 0.500 F 0.026 0.065 +14° 00' 54.60" 1.000E-01 0.500 F 0.160 -0.005 o 691 0.14 Yes No
2019ON1 O C K 2019-07-29.39033 1.000E-05 20:34:40.680 1.500E-01 0.500 F -0.086 0.345 -13° 40' 52.50" 1.000E-01 0.500 F 0.200 -0.044 21.4 R 0.70 -0.01 o 691 0.74 Yes Yes
2019ON1 O C K 2019-07-29.40024 1.000E-05 20:34:41.450 1.500E-01 0.500 F -0.086 0.082 -13° 40' 29.30" 1.000E-01 0.500 F 0.200 0.204 21.5 R 0.70 0.09 o 691 0.48 Yes Yes
2019ON1 O C K 2019-07-29.41016 1.000E-05 20:34:42.230 1.500E-01 0.500 F -0.086 -0.137 -13° 40' 06.60" 1.000E-01 0.500 F 0.200 -0.112 o 691 0.39 Yes No
2019OT1 O C K 2019-07-29.44380 1.000E-05 20:35:19.640 1.500E-01 0.500 F -0.061 0.209 -14° 59' 45.10" 1.000E-01 0.500 F 0.254 0.343 20.7 R 0.70 -0.32 o 691 0.87 Yes Yes
2019OT1 O C K 2019-07-29.44620 1.000E-05 20:35:19.310 1.500E-01 0.500 F -0.061 0.071 -14° 59' 36.90" 1.000E-01 0.500 F 0.254 -0.194 20.9 R 0.70 -0.12 o 691 0.46 Yes Yes
2019OT1 O C K 2019-07-29.44866 1.000E-05 20:35:18.960 1.500E-01 0.500 F -0.061 -0.246 -14° 59' 27.70" 1.000E-01 0.500 F 0.254 0.050 21.1 R 0.70 0.08 o 691 0.54 Yes Yes
2010CM O C K 2019-07-29.45481 1.000E-05 23:11:29.910 1.500E-01 0.500 F -0.227 -1.233 -10° 28' 01.80" 1.000E-01 0.500 F 0.310 0.595 21.4 R 0.70 0.00 o 691 2.75 Yes Yes
2010CM O C K 2019-07-29.46414 1.000E-05 23:11:29.610 1.500E-01 0.500 F -0.227 0.205 -10° 28' 07.20" 1.000E-01 0.500 F 0.310 0.053 21.7 R 0.70 0.30 o 691 0.42 Yes Yes
2010CM O C K 2019-07-29.47347 1.000E-05 23:11:29.190 1.500E-01 0.500 F -0.227 -0.130 -10° 28' 12.00" 1.000E-01 0.500 F 0.310 0.109 21.5 R 0.70 0.10 o 691 0.34 Yes Yes
2019OQ2 O C K 2019-08-19.16580 1.000E-05 21:24:04.360 1.500E-01 0.500 F -0.078 -0.366 -05° 08' 55.10" 1.000E-01 0.500 F 0.314 0.112 o 691 0.77 Yes No
2019OK1 O C K 2019-08-19.16910 1.000E-05 21:02:11.920 1.500E-01 0.500 F 0.012 -0.190 +20° 04' 28.40" 1.000E-01 0.500 F 0.256 0.103 20.8 R 0.70 0.27 o 691 0.46 Yes Yes
2019OK1 O C K 2019-08-19.17584 1.000E-05 21:02:12.660 1.500E-01 0.500 F 0.012 -0.250 +20° 04' 21.20" 1.000E-01 0.500 F 0.256 0.175 21.1 R 0.70 0.57 o 691 0.65 Yes Yes
2019OQ2 O C K 2019-08-19.17932 1.000E-05 21:24:02.150 1.500E-01 0.500 F -0.078 -0.077 -05° 09' 05.00" 1.000E-01 0.500 F 0.314 -0.505 o 691 1.03 Yes No
2019OU1 O C 2019-08-19.21460 1.000E-05 20:41:44.460 1.500E-01 0.500 F -0.147 -0.197 -17° 57' 26.40" 1.000E-01 0.500 F 0.202 0.059 18.0 V 0.70 0.01 o 691 0.42 Yes Yes
2019OH1 O C K 2019-08-19.21668 1.000E-05 19:52:03.990 1.500E-01 0.500 F -0.138 0.142 -14° 34' 23.60" 1.000E-01 0.500 F 0.389 -0.423 o 691 0.90 Yes No
2019OU1 O C 2019-08-19.22313 1.000E-05 20:41:43.820 1.500E-01 0.500 F -0.147 -0.169 -17° 57' 45.90" 1.000E-01 0.500 F 0.202 0.033 18.0 V 0.70 0.01 o 691 0.35 Yes Yes
2019OH1 O C K 2019-08-19.22521 1.000E-05 19:52:02.830 1.500E-01 0.500 F -0.130 -0.304 -14° 34' 15.30" 1.000E-01 0.500 F 0.372 0.451 o 691 1.09 Yes No
2019OU1 O C 2019-08-19.23166 1.000E-05 20:41:43.180 1.500E-01 0.500 F -0.147 -0.048 -17° 58' 05.30" 1.000E-01 0.500 F 0.202 0.051 18.0 V 0.70 0.01 o 691 0.14 Yes Yes
2019OH1 O C K 2019-08-19.23374 1.000E-05 19:52:01.700 1.500E-01 0.500 F -0.130 -0.315 -14° 34' 07.90" 1.000E-01 0.500 F 0.372 0.388 o 691 1.00 Yes No
2015OL35 O C 2019-08-19.24030 1.000E-05 21:03:50.360 1.500E-01 0.500 F -0.139 0.083 -17° 35' 23.80" 1.000E-01 0.500 F 0.260 0.310 20.0 V 0.70 -0.06 o 691 0.64 Yes Yes
2015OL35 O C 2019-08-19.25254 1.000E-05 21:03:49.120 1.500E-01 0.500 F -0.139 -0.718 -17° 35' 32.20" 1.000E-01 0.500 F 0.260 -0.881 20.3 V 0.70 0.24 o 691 2.28 Yes Yes
2019NJ5 O C K 2019-08-19.25669 1.000E-05 22:23:07.270 1.500E-01 0.500 F -0.223 -0.105 -09° 21' 57.70" 1.000E-01 0.500 F 0.245 -0.012 19.4 R 0.70 0.47 o 691 0.21 Yes Yes
2015OL35 O C 2019-08-19.26483 1.000E-05 21:03:47.970 1.500E-01 0.500 F -0.139 -0.154 -17° 35' 38.50" 1.000E-01 0.500 F 0.260 0.044 20.5 V 0.70 0.44 o 691 0.32 Yes Yes
2019NJ5 O C K 2019-08-19.26683 1.000E-05 22:23:08.750 1.500E-01 0.500 F -0.223 -0.027 -09° 22' 03.70" 1.000E-01 0.500 F 0.245 0.251 19.2 R 0.70 0.27 o 691 0.51 Yes Yes
2017FE65 O C K 2019-08-19.32810 1.000E-05 18:39:45.140 1.500E-01 0.500 F 0.160 -0.099 +30° 26' 33.50" 1.000E-01 0.500 F 0.316 0.049 o 691 0.24 Yes No
2017FE65 O C K 2019-08-19.34672 1.000E-05 18:39:43.320 1.500E-01 0.500 F 0.160 0.022 +30° 26' 01.40" 1.000E-01 0.500 F 0.316 -0.066 o 691 0.15 Yes No
2017AM4 O C K 2019-08-20.14069 1.000E-05 15:19:46.700 1.500E-01 0.500 F 0.040 0.027 -20° 14' 34.30" 1.000E-01 0.500 F -0.167 -0.304 19.0 R 0.70 0.00 o 691 0.65 Yes Yes
2019NC1 O C H 2019-08-20.14441 1.000E-05 17:19:42.830 1.500E-01 0.500 F 0.055 -0.529 -14° 58' 34.60" 1.000E-01 0.500 F 0.051 -0.377 19.3 R 0.70 0.19 o 691 1.30 Yes Yes
2017AM4 O C K 2019-08-20.14600 1.000E-05 15:19:46.490 1.500E-01 0.500 F 0.040 0.065 -20° 15' 33.20" 1.000E-01 0.500 F -0.167 -0.153 19.3 R 0.70 0.30 o 691 0.35 Yes Yes
2019NC1 O C H 2019-08-20.14961 1.000E-05 17:19:42.770 1.500E-01 0.500 F 0.055 -0.153 -14° 58' 21.80" 1.000E-01 0.500 F 0.051 -0.250 19.4 R 0.70 0.29 o 691 0.58 Yes Yes
2017AM4 O C K 2019-08-20.15122 1.000E-05 15:19:46.320 1.500E-01 0.500 F 0.040 0.599 -20° 16' 31.20" 1.000E-01 0.500 F -0.167 -0.127 o 691 1.24 Yes No
2019NZ1 O C K 2019-08-20.18592 1.000E-05 20:01:23.480 1.500E-01 0.500 F 0.150 0.100 -11° 18' 15.50" 1.000E-01 0.500 F 0.254 -0.233 o 691 0.53 Yes No
2019NZ1 O C K 2019-08-20.19190 1.000E-05 20:01:23.880 1.500E-01 0.500 F 0.150 0.030 -11° 18' 07.30" 1.000E-01 0.500 F 0.254 -0.229 o 691 0.49 Yes No
2019NZ1 O C K 2019-08-20.19787 1.000E-05 20:01:24.270 1.500E-01 0.500 F 0.150 -0.156 -11° 17' 58.90" 1.000E-01 0.500 F 0.254 -0.026 o 691 0.33 Yes No
2015RH2 O C K 2019-08-20.20469 1.000E-05 21:47:51.730 1.500E-01 0.500 F -0.136 -0.535 -16° 05' 43.20" 1.000E-01 0.500 F 0.294 0.225 o 691 1.17 Yes No
2019OQ2 O C K 2019-08-20.20779 1.000E-05 21:21:14.720 1.500E-01 0.500 F -0.078 -0.380 -05° 20' 59.20" 1.000E-01 0.500 F 0.314 -0.173 o 691 0.84 Yes No
2019OQ2 O C K 2019-08-20.21400 1.000E-05 21:21:13.700 1.500E-01 0.500 F -0.078 0.105 -05° 21' 03.70" 1.000E-01 0.500 F 0.314 -0.257 o 691 0.56 Yes No
2015RH2 O C K 2019-08-20.21710 1.000E-05 21:47:49.600 1.500E-01 0.500 F -0.136 -0.438 -16° 05' 43.60" 1.000E-01 0.500 F 0.294 -0.045 o 691 0.89 Yes No
2019OQ2 O C K 2019-08-20.22020 1.000E-05 21:21:12.650 1.500E-01 0.500 F -0.078 0.127 -05° 21' 07.90" 1.000E-01 0.500 F 0.314 -0.049 o 691 0.27 Yes No
2019PO1 O C K 2019-08-20.22422 1.000E-05 22:18:07.620 1.500E-01 0.500 F -0.154 0.398 -11° 27' 53.70" 1.000E-01 0.500 F 0.266 -0.261 o 691 0.96 Yes No
2019PO1 O C K 2019-08-20.23361 1.000E-05 22:18:05.100 1.500E-01 0.500 F -0.154 0.406 -11° 27' 48.80" 1.000E-01 0.500 F 0.266 -1.057 o 691 2.27 Yes No
2019NJ5 O C H 2019-08-20.29943 1.000E-05 22:26:07.070 1.500E-01 0.612 F -0.061 0.014 -09° 32' 26.40" 1.000E-01 0.612 F 0.225 0.126 18.9 R 0.70 0.03 o 691 0.21 Yes Yes
2015OL35 O C K 2019-08-20.30160 1.000E-05 21:02:10.700 1.500E-01 0.612 F -0.170 -0.001 -17° 45' 46.20" 1.000E-01 0.612 F 0.144 0.002 20.2 R 0.70 0.53 o 691 0.00 Yes Yes
2019NJ5 O C H 2019-08-20.30546 1.000E-05 22:26:07.950 1.500E-01 0.612 F -0.061 -0.177 -09° 32' 30.00" 1.000E-01 0.612 F 0.225 0.319 o 691 0.60 Yes No
2015OL35 O C K 2019-08-20.30751 1.000E-05 21:02:10.140 1.500E-01 0.612 F -0.170 0.209 -17° 45' 49.40" 1.000E-01 0.612 F 0.144 0.247 19.9 R 0.70 0.23 o 691 0.53 Yes Yes
2019NJ5 O C H 2019-08-20.31136 1.000E-05 22:26:08.850 1.500E-01 0.612 F -0.061 0.227 -09° 32' 33.10" 1.000E-01 0.612 F 0.225 0.916 18.5 R 0.70 -0.37 o 691 1.55 Yes Yes
2015OL35 O C K 2019-08-20.31336 1.000E-05 21:02:09.560 1.500E-01 0.612 F -0.170 0.049 -17° 45' 53.00" 1.000E-01 0.612 F 0.144 0.055 20.0 R 0.70 0.33 o 691 0.12 Yes Yes
2019NJ5 O C K 2019-08-20.31782 1.000E-05 22:26:09.780 1.500E-01 0.612 F -0.061 -0.139 -09° 32' 37.70" 1.000E-01 0.612 F 0.225 0.348 18.5 R 0.70 -0.37 o 691 0.62 Yes Yes
2015OL35 O C K 2019-08-20.32372 1.000E-05 21:02:08.550 1.500E-01 0.612 F -0.170 0.004 -17° 45' 58.70" 1.000E-01 0.612 F 0.144 0.383 20.2 R 0.70 0.53 o 691 0.63 Yes Yes
2019NJ5 O C K 2019-08-20.32757 1.000E-05 22:26:11.220 1.500E-01 0.612 F -0.061 -0.138 -09° 32' 43.60" 1.000E-01 0.612 F 0.225 0.500 18.7 R 0.70 -0.17 o 691 0.85 Yes Yes
2015OL35 O C K 2019-08-20.33108 1.000E-05 21:02:07.860 1.500E-01 0.612 F -0.170 0.359 -17° 46' 02.90" 1.000E-01 0.612 F 0.144 0.459 19.8 R 0.70 0.13 o 691 0.95 Yes Yes
2019NJ5 O C K 2019-08-20.33494 1.000E-05 22:26:12.300 1.500E-01 0.612 F -0.061 -0.261 -09° 32' 48.20" 1.000E-01 0.612 F 0.225 0.449 18.7 R 0.70 -0.17 o 691 0.85 Yes Yes
2015OL35 O C K 2019-08-20.33846 1.000E-05 21:02:07.140 1.500E-01 0.612 F -0.170 0.309 -17° 46' 07.50" 1.000E-01 0.612 F 0.144 0.142 19.9 R 0.70 0.23 o 691 0.56 Yes Yes
2019OK1 O C K 2019-08-20.34540 1.000E-05 21:04:40.500 1.500E-01 0.500 F 0.033 -0.412 +19° 41' 38.10" 1.000E-01 0.500 F 0.165 0.280 o 691 1.07 Yes No
2019PV1 O C K 2019-08-20.35479 1.000E-05 21:06:53.950 1.500E-01 0.500 F -0.052 0.156 +11° 58' 54.60" 1.000E-01 0.500 F 0.306 -0.048 19.6 R 0.70 0.47 o 691 0.35 Yes Yes
2019OK1 O C K 2019-08-20.35922 1.000E-05 21:04:41.890 1.500E-01 0.500 F 0.033 -0.078 +19° 41' 21.10" 1.000E-01 0.500 F 0.165 0.238 o 691 0.54 Yes No
2019PV1 O C K 2019-08-20.36860 1.000E-05 21:06:53.290 1.500E-01 0.500 F -0.052 0.084 +12° 03' 11.80" 1.000E-01 0.500 F 0.306 0.293 18.9 R 0.70 -0.23 o 691 0.66 Yes Yes
2019PV1 O C K 2019-08-20.38243 1.000E-05 21:06:52.680 1.500E-01 0.500 F -0.052 0.394 +12° 07' 29.00" 1.000E-01 0.500 F 0.306 0.121 19.4 R 0.70 0.27 o 691 0.89 Yes Yes
2015RZ35 O C K 2019-08-20.38849 1.000E-05 22:44:06.470 1.500E-01 0.500 F -0.044 -0.093 +22° 24' 18.90" 1.000E-01 0.500 F 0.308 0.026 19.0 R 0.70 -0.30 o 691 0.19 Yes Yes
2016PD1 O C K 2019-08-20.39185 1.000E-05 22:48:10.960 1.500E-01 0.500 F -0.159 0.021 +15° 54' 08.50" 1.000E-01 0.500 F 0.363 -0.045 17.3 R 0.70 -0.31 o 691 0.10 Yes Yes
2016PD1 O C K 2019-08-20.39870 1.000E-05 22:48:17.210 1.500E-01 0.500 F -0.159 0.415 +15° 53' 16.20" 1.000E-01 0.500 F 0.363 0.016 17.5 R 0.70 -0.11 o 691 0.85 Yes Yes
2015RZ35 O C K 2019-08-20.40219 1.000E-05 22:44:05.650 1.500E-01 0.500 F -0.044 0.234 +22° 24' 38.60" 1.000E-01 0.500 F 0.308 0.309 19.1 R 0.70 -0.20 o 691 0.78 Yes Yes
2016PD1 O C K 2019-08-20.40555 1.000E-05 22:48:23.440 1.500E-01 0.500 F -0.159 0.348 +15° 52' 23.70" 1.000E-01 0.500 F 0.363 0.033 17.8 R 0.70 0.19 o 691 0.71 Yes Yes
2019OM1 O C K 2019-08-20.48262 1.000E-05 04:33:51.410 1.500E-01 0.500 F -0.334 -0.011 -05° 47' 05.10" 1.000E-01 0.500 F -0.110 0.523 17.8 R 0.70 -0.61 o 691 1.10 Yes Yes
2019OM1 O C K 2019-08-20.48738 1.000E-05 04:33:59.650 1.500E-01 0.500 F -0.334 -0.524 -05° 45' 56.80" 1.000E-01 0.500 F -0.110 0.104 o 691 1.12 Yes No
2019OM1 O C K 2019-08-20.49213 1.000E-05 04:34:07.960 1.500E-01 0.500 F -0.334 0.357 -05° 44' 48.00" 1.000E-01 0.500 F -0.110 0.326 o 691 1.02 Yes No
2019NY2 O C K 2019-08-21.14021 1.000E-05 15:15:05.260 1.500E-01 0.500 F 0.216 -0.724 -10° 16' 02.80" 1.000E-01 0.500 F 0.213 -0.142 22.5 R 0.70 0.89 o 691 1.52 Yes Yes
2019NY2 O C K 2019-08-21.14732 1.000E-05 15:15:06.040 1.500E-01 0.500 F 0.216 0.542 -10° 16' 18.80" 1.000E-01 0.500 F 0.213 0.088 21.9 R 0.70 0.29 o 691 1.13 Yes Yes
2019LX4 O C K 2019-08-21.16963 1.000E-05 15:48:58.090 1.500E-01 0.500 F 0.230 -1.695 -09° 00' 48.40" 1.000E-01 0.500 F 0.107 -0.328 o 691 3.44 No No
2019LX4 O C K 2019-08-21.17499 1.000E-05 15:48:58.990 1.500E-01 0.500 F 0.230 -0.204 -09° 00' 44.60" 1.000E-01 0.500 F 0.107 0.576 o 691 1.23 Yes No
2019LX4 O C K 2019-08-21.18036 1.000E-05 15:48:59.830 1.500E-01 0.500 F 0.230 0.346 -09° 00' 42.60" 1.000E-01 0.500 F 0.107 -0.331 o 691 0.96 Yes No
2012PN28 O C K 2019-08-21.21450 1.000E-05 21:31:19.540 1.500E-01 0.500 F -0.129 -0.246 -10° 58' 51.90" 1.000E-01 0.500 F 0.401 -0.439 o 691 1.03 Yes No
2012PN28 O C K 2019-08-21.22241 1.000E-05 21:31:18.850 1.500E-01 0.500 F -0.129 0.284 -10° 58' 52.10" 1.000E-01 0.500 F 0.401 -0.125 o 691 0.63 Yes No
2019QT O C K 2019-08-22.24968 1.000E-05 20:37:11.640 1.500E-01 0.500 F -0.028 0.752 -03° 13' 27.60" 1.000E-01 0.500 F 0.273 0.111 20.8 R 0.70 0.22 o 691 1.55 Yes Yes
2019QT O C K 2019-08-22.27172 1.000E-05 20:37:04.850 1.500E-01 0.500 F -0.028 0.455 -03° 13' 37.10" 1.000E-01 0.500 F 0.273 -0.164 19.9 R 0.70 -0.68 o 691 0.99 Yes Yes
2019QV O C H 2019-08-22.27730 1.000E-05 20:43:40.230 1.500E-01 0.500 F -0.023 -0.229 -00° 50' 38.30" 1.000E-01 0.500 F 0.253 0.362 20.2 R 0.70 -0.26 o 691 0.87 Yes Yes
2019QV O C H 2019-08-22.28383 1.000E-05 20:43:39.670 1.500E-01 0.500 F -0.023 -0.545 -00° 50' 46.60" 1.000E-01 0.500 F 0.253 0.551 21.0 R 0.70 0.54 o 691 1.57 Yes Yes
2019QV O C H 2019-08-22.29029 1.000E-05 20:43:39.160 1.500E-01 0.500 F -0.023 -0.205 -00° 50' 55.30" 1.000E-01 0.500 F 0.253 0.251 21.3 R 0.70 0.84 o 691 0.66 Yes Yes
2019QL1 O C K 2019-08-22.33750 1.000E-05 23:16:34.660 1.500E-01 0.500 F -0.193 -0.173 -11° 05' 29.20" 1.000E-01 0.500 F 0.449 -0.297 21.0 R 0.70 0.08 o 691 0.69 Yes Yes
2019QL1 O C K 2019-08-22.35849 1.000E-05 23:16:35.870 1.500E-01 0.500 F -0.193 -0.108 -11° 05' 07.10" 1.000E-01 0.500 F 0.449 -1.170 o 691 2.37 Yes No
2019QL1 O C K 2019-08-22.37510 1.000E-05 23:16:36.810 1.500E-01 0.500 F -0.193 -0.292 -11° 04' 47.70" 1.000E-01 0.500 F 0.449 -0.022 21.3 R 0.70 0.38 o 691 0.59 Yes Yes
2019QL1 O C K 2019-08-22.39606 1.000E-05 23:16:38.040 1.500E-01 0.500 F -0.193 0.092 -11° 04' 24.70" 1.000E-01 0.500 F 0.449 -0.145 21.8 R 0.70 0.88 o 691 0.35 Yes Yes
2019QS O C K 2019-08-25.34161 1.000E-05 21:10:37.460 1.500E-01 0.500 F -0.193 0.434 +07° 33' 05.00" 1.000E-01 0.500 F 0.398 0.487 18.8 R 0.70 0.11 o 691 1.32 Yes Yes
2019QS O C K 2019-08-25.35226 1.000E-05 21:10:23.280 1.500E-01 0.500 F -0.193 0.605 +07° 35' 27.20" 1.000E-01 0.500 F 0.398 0.763 18.4 R 0.70 -0.29 o 691 1.96 Yes Yes
2019QS O C K 2019-08-25.36292 1.000E-05 21:10:08.990 1.500E-01 0.500 F -0.193 0.298 +07° 37' 49.40" 1.000E-01 0.500 F 0.398 0.129 18.1 R 0.70 -0.58 o 691 0.66 Yes Yes
2019QR O C K 2019-08-25.38571 1.000E-05 23:46:47.780 1.500E-01 0.500 F -0.092 -0.123 +17° 13' 42.10" 1.000E-01 0.500 F 0.326 -0.105 20.4 R 0.70 0.53 o 691 0.39 Yes Yes
2019QR O C K 2019-08-25.40036 1.000E-05 23:47:10.530 1.500E-01 0.500 F -0.092 0.113 +17° 16' 21.70" 1.000E-01 0.500 F 0.326 0.233 19.7 R 0.70 -0.17 o 691 0.63 Yes Yes
2019QR O C K 2019-08-25.41502 1.000E-05 23:47:33.330 1.500E-01 0.500 F -0.100 0.038 +17° 19' 00.00" 1.000E-01 0.500 F 0.290 -0.209 19.9 R 0.70 0.03 o 691 0.51 Yes Yes
2019PO1 O C K 2019-08-25.42130 1.000E-05 22:02:23.960 1.500E-01 0.500 F -0.067 -2.506 -10° 31' 16.00" 1.000E-01 0.500 F 0.253 1.027 21.7 R 0.70 0.42 o 691 5.39 No Yes
2019PO1 O C K 2019-08-25.43460 1.000E-05 22:02:21.210 1.500E-01 0.500 F -0.067 -2.993 -10° 31' 06.30" 1.000E-01 0.500 F 0.253 1.388 21.1 R 0.70 -0.18 o 691 6.57 No Yes
2019NC1 O C 2019-08-26.16682 1.000E-05 17:21:28.980 1.500E-01 0.500 F 0.014 0.027 -11° 12' 59.30" 1.000E-01 0.500 F 0.187 0.261 19.7 R 0.70 0.32 o 691 0.53 Yes Yes
2019NC1 O C 2019-08-26.17312 1.000E-05 17:21:29.040 1.500E-01 0.500 F 0.014 0.149 -11° 12' 46.30" 1.000E-01 0.500 F 0.187 -0.017 20.1 R 0.70 0.72 o 691 0.30 Yes Yes
2019NC1 O C 2019-08-26.17941 1.000E-05 17:21:29.080 1.500E-01 0.500 F 0.014 -0.057 -11° 12' 33.10" 1.000E-01 0.500 F 0.187 -0.087 20.5 R 0.70 1.12 o 691 0.20 Yes Yes
2019QE O C K 2019-08-26.29070 1.000E-05 23:56:40.350 1.500E-01 0.500 F -0.043 -0.539 +06° 27' 27.30" 1.000E-01 0.500 F 0.339 -0.175 19.7 R 0.70 -0.62 o 691 1.14 Yes Yes
2019QE O C K 2019-08-26.29790 1.000E-05 23:56:43.740 1.500E-01 0.500 F -0.043 -0.756 +06° 28' 04.40" 1.000E-01 0.500 F 0.339 0.209 19.7 R 0.70 -0.62 o 691 1.57 Yes Yes
2019QE O C K 2019-08-26.30510 1.000E-05 23:56:47.120 1.500E-01 0.500 F -0.043 -0.758 +06° 28' 40.60" 1.000E-01 0.500 F 0.339 -0.174 19.9 R 0.70 -0.43 o 691 1.56 Yes Yes
2019PR2 O C K 2019-08-26.31353 1.000E-05 01:34:26.000 1.500E-01 0.500 F -0.123 -0.043 +11° 07' 03.10" 1.000E-01 0.500 F 0.307 -0.298 19.8 R 0.70 0.33 o 691 0.61 Yes Yes
2019PR2 O C K 2019-08-26.31589 1.000E-05 01:34:26.360 1.500E-01 0.500 F -0.123 0.110 +11° 07' 08.60" 1.000E-01 0.500 F 0.307 0.004 20.0 R 0.70 0.53 o 691 0.22 Yes Yes
2019PR2 O C K 2019-08-26.31825 1.000E-05 01:34:26.700 1.500E-01 0.500 F -0.123 -0.030 +11° 07' 14.00" 1.000E-01 0.500 F 0.307 0.207 19.7 R 0.70 0.23 o 691 0.42 Yes Yes
2003QC10 O C 2019-08-26.44675 1.000E-05 00:05:35.030 1.500E-01 0.500 F -0.322 -0.081 -04° 54' 05.40" 1.000E-01 0.500 F 0.290 -0.002 18.4 V 0.70 0.23 o 691 0.16 Yes Yes
2003QC10 O C 2019-08-26.45438 1.000E-05 00:05:34.350 1.500E-01 0.500 F -0.322 -0.162 -04° 54' 10.00" 1.000E-01 0.500 F 0.290 0.058 18.4 V 0.70 0.23 o 691 0.34 Yes Yes
2003QC10 O C 2019-08-26.45948 1.000E-05 00:05:33.900 1.500E-01 0.500 F -0.322 -0.153 -04° 54' 13.20" 1.000E-01 0.500 F 0.290 -0.027 18.5 V 0.70 0.33 o 691 0.31 Yes Yes
2019NJ1 O C K 2019-08-26.46390 1.000E-05 02:26:49.430 1.500E-01 0.500 F -0.325 0.098 +06° 32' 57.20" 1.000E-01 0.500 F 0.317 -0.166 21.3 R 0.70 0.09 o 691 0.45 Yes Yes
2019NJ1 O C K 2019-08-26.47084 1.000E-05 02:26:49.670 1.500E-01 0.500 F -0.325 -0.219 +06° 33' 07.10" 1.000E-01 0.500 F 0.317 0.160 21.4 R 0.70 0.19 o 691 0.62 Yes Yes
2019NJ1 O C K 2019-08-26.47778 1.000E-05 02:26:49.940 1.500E-01 0.500 F -0.325 -0.078 +06° 33' 16.40" 1.000E-01 0.500 F 0.317 -0.104 21.1 R 0.70 -0.11 o 691 0.31 Yes Yes
2006SC6 O C 2019-08-27.23372 1.000E-05 21:59:20.210 1.500E-01 0.500 F -0.127 -0.259 -09° 48' 36.60" 1.000E-01 0.500 F 0.256 -0.524 19.9 V 0.70 0.22 o 691 1.17 Yes Yes
2019PO1 O C K 2019-08-27.23372 1.000E-05 21:58:08.030 1.500E-01 0.500 F -0.153 -0.300 -10° 14' 54.90" 1.000E-01 0.500 F 0.196 0.172 21.8 R 0.70 0.27 o 691 0.69 Yes Yes
2019PO1 O C K 2019-08-27.25163 1.000E-05 21:58:04.410 1.500E-01 0.500 F -0.153 -0.167 -10° 14' 46.60" 1.000E-01 0.500 F 0.196 0.139 22.1 R 0.70 0.57 o 691 0.44 Yes Yes
2006SC6 O C 2019-08-27.26058 1.000E-05 21:59:16.750 1.500E-01 0.500 F -0.127 -0.570 -09° 49' 21.80" 1.000E-01 0.500 F 0.256 -0.243 19.7 V 0.70 0.02 o 691 1.24 Yes Yes
2019PO1 O C K 2019-08-27.26954 1.000E-05 21:58:00.720 1.500E-01 0.500 F -0.153 -0.591 -10° 14' 37.70" 1.000E-01 0.500 F 0.196 0.376 21.8 R 0.70 0.27 o 691 1.41 Yes Yes
2006SC6 O C 2019-08-27.28596 1.000E-05 21:59:13.520 1.500E-01 0.500 F -0.127 -0.235 -09° 50' 04.60" 1.000E-01 0.500 F 0.256 -0.109 19.7 V 0.70 0.02 o 691 0.52 Yes Yes
2019QE O C K 2019-08-27.32802 1.000E-05 00:04:58.380 1.500E-01 0.500 F -0.072 -0.235 +07° 41' 24.70" 1.000E-01 0.500 F 0.375 -0.138 20.7 R 0.70 0.01 o 691 0.55 Yes Yes
2019QE O C K 2019-08-27.33803 1.000E-05 00:05:01.660 1.500E-01 0.500 F -0.072 -0.345 +07° 42' 01.90" 1.000E-01 0.500 F 0.375 0.158 20.7 R 0.70 0.00 o 691 0.76 Yes Yes
2019QE O C K 2019-08-27.34803 1.000E-05 00:05:04.910 1.500E-01 0.500 F -0.072 -0.483 +07° 42' 37.70" 1.000E-01 0.500 F 0.375 -0.695 20.4 R 0.70 -0.30 o 691 1.70 Yes Yes
2019PW1 O C K 2019-08-27.41996 1.000E-05 23:21:58.660 1.500E-01 0.500 F -0.239 -0.019 +16° 07' 09.00" 1.000E-01 0.500 F 0.299 -0.170 20.8 R 0.70 -0.11 o 691 0.36 Yes Yes
2019PW1 O C K 2019-08-27.42475 1.000E-05 23:21:59.080 1.500E-01 0.500 F -0.239 0.110 +16° 07' 17.80" 1.000E-01 0.500 F 0.299 0.054 21.1 R 0.70 0.19 o 691 0.26 Yes Yes
2019PW1 O C K 2019-08-27.42954 1.000E-05 23:21:59.480 1.500E-01 0.500 F -0.239 -0.062 +16° 07' 26.90" 1.000E-01 0.500 F 0.299 0.588 21.1 R 0.70 0.19 o 691 1.23 Yes Yes
2019QU1 O C K 2019-08-27.43540 1.000E-05 00:23:28.160 1.500E-01 0.500 F -0.148 -0.229 +04° 47' 49.50" 1.000E-01 0.500 F 0.358 0.051 19.7 R 0.70 -0.07 o 691 0.48 Yes Yes
2019QU1 O C K 2019-08-27.43828 1.000E-05 00:23:26.400 1.500E-01 0.500 F -0.148 -0.874 +04° 48' 18.60" 1.000E-01 0.500 F 0.358 -0.147 19.4 R 0.70 -0.37 o 691 1.82 Yes Yes
2019QU1 O C K 2019-08-27.44115 1.000E-05 00:23:24.770 1.500E-01 0.500 F -0.148 0.335 +04° 48' 47.30" 1.000E-01 0.500 F 0.358 -0.649 19.9 R 0.70 0.13 o 691 1.48 Yes Yes
2005RZ2 O C K 2019-08-27.44781 1.000E-05 02:16:16.880 1.500E-01 0.500 F -0.358 1.077 +03° 45' 38.30" 1.000E-01 0.500 F 0.214 -0.038 21.6 R 0.70 0.44 o 691 2.21 Yes Yes
2005RZ2 O C K 2019-08-27.45791 1.000E-05 02:16:19.730 1.500E-01 0.500 F -0.358 1.693 +03° 44' 59.30" 1.000E-01 0.500 F 0.214 -0.187 21.3 R 0.70 0.14 o 691 3.33 No Yes
2005RZ2 O C K 2019-08-27.46801 1.000E-05 02:16:22.470 1.500E-01 0.500 F -0.358 0.677 +03° 44' 20.30" 1.000E-01 0.500 F 0.214 -0.310 21.3 R 0.70 0.14 o 691 1.52 Yes Yes
2019PR1 O C K 2019-08-27.47970 1.000E-05 01:27:14.460 1.500E-01 0.500 F -0.260 0.340 +13° 44' 13.20" 1.000E-01 0.500 F 0.357 -0.351 20.1 R 0.70 -0.17 o 691 1.04 Yes Yes
2019PR1 O C K 2019-08-27.48314 1.000E-05 01:27:14.720 1.500E-01 0.500 F -0.260 0.532 +13° 44' 31.70" 1.000E-01 0.500 F 0.357 0.168 20.2 R 0.70 -0.07 o 691 1.19 Yes Yes
2019PR1 O C K 2019-08-27.48658 1.000E-05 01:27:14.940 1.500E-01 0.500 F -0.260 0.135 +13° 44' 49.60" 1.000E-01 0.500 F 0.357 0.098 20.3 R 0.70 0.03 o 691 0.36 Yes Yes
1993PC O C 2019-08-28.25892 1.000E-05 21:20:04.890 1.500E-01 0.500 F -0.135 -0.076 -17° 21' 41.80" 1.000E-01 0.500 F 0.258 -0.076 19.8 V 0.70 0.36 o 691 0.21 Yes Yes
1993PC O C 2019-08-28.27127 1.000E-05 21:20:03.140 1.500E-01 0.500 F -0.135 -0.053 -17° 21' 46.70" 1.000E-01 0.500 F 0.258 -0.180 20.4 V 0.70 0.96 o 691 0.38 Yes Yes
1993PC O C 2019-08-28.28156 1.000E-05 21:20:01.660 1.500E-01 0.500 F -0.135 -0.354 -17° 21' 50.50" 1.000E-01 0.500 F 0.258 -0.002 20.7 V 0.70 1.26 o 691 0.71 Yes Yes
2019QE O C K 2019-08-28.29387 1.000E-05 00:10:52.970 1.500E-01 0.500 F -0.154 -0.011 +08° 32' 35.20" 1.000E-01 0.500 F 0.299 -0.133 21.1 R 0.70 0.11 o 691 0.27 Yes Yes
2019QE O C K 2019-08-28.30221 1.000E-05 00:10:55.110 1.500E-01 0.500 F -0.154 0.573 +08° 32' 59.60" 1.000E-01 0.500 F 0.299 0.351 20.9 R 0.70 -0.09 o 691 1.35 Yes Yes
2019QE O C K 2019-08-28.31183 1.000E-05 00:10:57.400 1.500E-01 0.500 F -0.154 -1.004 +08° 33' 26.30" 1.000E-01 0.500 F 0.299 -0.388 21.3 R 0.70 0.31 o 691 2.16 Yes Yes
2019PO1 O C K 2019-08-28.32748 1.000E-05 21:55:33.720 1.500E-01 0.500 F -0.153 0.120 -10° 05' 42.20" 1.000E-01 0.500 F 0.196 0.203 22.2 R 0.70 0.53 o 691 0.47 Yes Yes
2019PO1 O C K 2019-08-28.34399 1.000E-05 21:55:30.580 1.500E-01 0.500 F -0.153 0.643 -10° 05' 33.10" 1.000E-01 0.500 F 0.196 0.389 21.8 R 0.70 0.13 o 691 1.51 Yes Yes
2019PO1 O C K 2019-08-28.36050 1.000E-05 21:55:27.480 1.500E-01 0.500 F -0.153 1.169 -10° 05' 24.50" 1.000E-01 0.500 F 0.196 -0.184 21.9 R 0.70 0.23 o 691 2.37 Yes Yes
2019OK1 O C K 2019-08-28.41099 1.000E-05 21:18:26.390 1.500E-01 0.500 F 0.065 -0.063 +17° 10' 29.20" 1.000E-01 0.500 F 0.394 0.354 21.2 R 0.70 0.07 o 691 0.75 Yes Yes
2019OK1 O C K 2019-08-28.41858 1.000E-05 21:18:26.960 1.500E-01 0.500 F 0.065 0.299 +17° 10' 19.10" 1.000E-01 0.500 F 0.394 -0.850 o 691 1.89 Yes No
2019OK1 O C K 2019-08-28.42617 1.000E-05 21:18:27.570 1.500E-01 0.500 F 0.065 1.138 +17° 10' 10.10" 1.000E-01 0.500 F 0.394 -0.934 21.0 R 0.70 -0.14 o 691 3.10 Yes Yes
2019QD3 O C K 2019-08-28.43425 1.000E-05 00:29:27.860 1.500E-01 0.500 F -0.100 0.047 +16° 08' 12.50" 1.000E-01 0.500 F 0.419 -0.377 o 691 0.78 Yes No
2019QD3 O C K 2019-08-28.43898 1.000E-05 00:29:28.970 1.500E-01 0.500 F -0.100 -0.080 +16° 08' 05.40" 1.000E-01 0.500 F 0.419 -0.344 20.9 R 0.70 0.44 o 691 0.72 Yes Yes
2019QD3 O C K 2019-08-28.44487 1.000E-05 00:29:30.350 1.500E-01 0.500 F -0.100 -0.280 +16° 07' 56.60" 1.000E-01 0.500 F 0.419 -0.249 20.8 R 0.70 0.34 o 691 0.76 Yes Yes
2019PD3 O C K 2019-08-28.44965 1.000E-05 00:55:38.430 1.500E-01 0.500 F -0.254 0.165 +02° 35' 02.00" 1.000E-01 0.500 F 0.287 -0.191 19.5 R 0.70 -0.25 o 691 0.59 Yes Yes
2019PD3 O C K 2019-08-28.45363 1.000E-05 00:55:38.740 1.500E-01 0.500 F -0.254 -0.169 +02° 34' 29.60" 1.000E-01 0.500 F 0.287 0.080 20.1 R 0.70 0.35 o 691 0.43 Yes Yes
2006RJ1 O C K 2019-08-28.47453 1.000E-05 02:49:27.020 1.500E-01 0.500 F -0.159 0.050 +10° 26' 34.60" 1.000E-01 0.500 F 0.181 -0.045 21.6 R 0.70 0.20 o 691 0.13 Yes Yes
2006RJ1 O C K 2019-08-28.48391 1.000E-05 02:49:26.420 1.500E-01 0.500 F -0.159 -0.125 +10° 26' 29.30" 1.000E-01 0.500 F 0.181 -0.267 21.3 R 0.70 -0.10 o 691 0.59 Yes Yes
2006RJ1 O C K 2019-08-28.49328 1.000E-05 02:49:25.780 1.500E-01 0.500 F -0.159 -0.886 +10° 26' 24.40" 1.000E-01 0.500 F 0.181 -0.076 21.5 R 0.70 0.10 o 691 1.79 Yes Yes
2019LX4 O C K 2019-08-30.13517 1.000E-05 16:15:55.730 1.500E-01 0.500 F 0.162 -0.339 -07° 34' 29.10" 1.000E-01 0.500 F 0.218 -0.059 20.4 R 0.70 -0.25 o 691 0.69 Yes Yes
2019LX4 O C K 2019-08-30.13891 1.000E-05 16:15:56.450 1.500E-01 0.500 F 0.162 -0.058 -07° 34' 26.50" 1.000E-01 0.500 F 0.218 0.036 20.5 R 0.70 -0.15 o 691 0.14 Yes Yes
2019LX4 O C K 2019-08-30.14266 1.000E-05 16:15:57.150 1.500E-01 0.500 F 0.162 -0.116 -07° 34' 24.00" 1.000E-01 0.500 F 0.218 0.022 o 691 0.24 Yes No
2019OQ2 O C K 2019-08-30.20914 1.000E-05 20:51:30.360 1.500E-01 0.500 F -0.105 -0.148 -07° 37' 12.30" 1.000E-01 0.500 F 0.379 0.396 20.0 R 0.70 -0.04 o 691 0.85 Yes Yes

[1-200] [201-400] [401-600] [601-800] [801-1000] [1001-1200] [1201-1400] [1401-1600] [1601-1800] [1801-2000] [2001-2200] [2201-2400] [2401-2600] [2601-2800] [2801-3000] [3001-3200] [3201-3400] [3401-3600] [3601-3800] [3801-4000] [4001-4200] [4201-4400] [4401-4600] [4601-4800] [4801-5000] [5001-5200] [5201-5400] [5401-5600] [5601-5800] [5801-6000] [6001-6200] [6201-6400] [6401-6600] [6601-6800] [6801-7000] [7001-7200] [7201-7400] [7401-7600] [7601-7800] [7801-8000] [8001-8200] [8201-8400] [8401-8600] [8601-8800] [8801-9000] [9001-9200] [9201-9400] [9401-9600] [9601-9800] [9801-10000] [10001-10200] [10201-10400] [10401-10600] [10601-10800] [10801-11000] [11001-11200] [11201-11400] [11401-11600] [11601-11800] [11801-12000] [12001-12200] [12201-12400] [12401-12600] [12601-12800] [12801-13000] [13001-13200] [13201-13400] [13401-13600] [13601-13800] [13801-14000] [14001-14200] [14201-14400] [14401-14600] [14601-14800] [14801-15000] [15001-15200] [15201-15400] [15401-15600] [15601-15800] [15801-16000] [16001-16200] [16201-16400] [16401-16600] [16601-16800] [16801-17000] [17001-17200] [17201-17400] [17401-17600] [17601-17800] [17801-18000] [18001-18200] [18201-18400] [18401-18600] [18601-18800] [18801-19000] [19001-19200] [19201-19400] [19401-19600] [19601-19800] [19801-20000] [20001-20200] [20201-20400] [20401-20600] [20601-20800] [20801-21000] [21001-21200] [21201-21400] [21401-21600] [21601-21800] [21801-22000] [22001-22200] [22201-22400] [22401-22600] [22601-22800] [22801-23000] [23001-23200] [23201-23400] [23401-23600] [23601-23800] [23801-24000] [24001-24200] [24201-24400] [24401-24600] [24601-24800] [24801-25000] [25001-25200] [25201-25400] [25401-25600] [25601-25800] [25801-26000] [26001-26200] [26201-26400] [26401-26600] [26601-26800] [26801-27000] [27001-27200] [27201-27400] [27401-27600] [27601-27800] [27801-28000] [28001-28200] [28201-28400] [28401-28600] [28601-28800] [28801-29000] [29001-29200] [29201-29400] [29401-29600] [29601-29800] [29801-30000] [30001-30200] [30201-30400] [30401-30600] [30601-30800] [30801-31000] [31001-31200] [31201-31400] [31401-31600] [31601-31800] [31801-32000] [32001-32200] [32201-32400] [32401-32600] [32601-32800] [32801-33000] [33001-33200] [33201-33400] [33401-33600] [33601-33800] [33801-34000] [34001-34200] [34201-34400] [34401-34600] [34601-34800] [34801-35000] [35001-35200] [35201-35400] [35401-35600] [35601-35800] [35801-36000] [36001-36200] [36201-36400] [36401-36600] [36601-36800] [36801-37000] [37001-37200] [37201-37400] [37401-37600] [37601-37800] [37801-38000] [38001-38200] [38201-38400] [38401-38600] [38601-38800] [38801-39000] [39001-39200] [39201-39400] [39401-39600] [39601-39800] [39801-40000] [40001-40200] [40201-40400] [40401-40600] [40601-40800] [40801-41000] [41001-41200] [41201-41400] [41401-41600] [41601-41800] [41801-42000] [42001-42200] [42201-42400] [42401-42600] [42601-42800] [42801-43000] [43001-43200] [43201-43400] [43401-43600] [43601-43800] [43801-44000] [44001-44200] [44201-44400] [44401-44600] [44601-44800] [44801-45000] [45001-45200] [45201-45400] [45401-45600] [45601-45800] [45801-46000] [46001-46200] [46201-46400] [46401-46600] [46601-46800] [46801-47000] [47001-47200] [47201-47400] [47401-47600] [47601-47800] [47801-48000] [48001-48200] [48201-48400] [48401-48600] [48601-48800] [48801-49000] [49001-49200] [49201-49400] [49401-49600] [49601-49800] [49801-50000] [50001-50200] [50201-50388]